Terminal Aerodrome Forecast
Issued by NWS

Home | Current Version | Previous Version | Text Only | Print | Product List | Glossary On
Versions: 1 2 3 4 5 6 7 8 9 10 11 12 13 14 15 16
000
FTUS46 KSEW 232100 AAA
TAFPAE
TAF AMD
KPAE 232117Z 2321/2418 18012G19KT P6SM VCSH SCT024 BKN030 BKN045
     FM240200 18011G20KT P6SM -RA SCT020 OVC040
     FM240900 18013KT P6SM -RA OVC015
     FM241700 19013KT P6SM -SHRA OVC015=

USA.gov is the U.S. government's official web portal to all federal, state and local government web resources and services.